sensor_id;sensor_type;location;lat;lon;timestamp;P1;durP1;ratioP1;P2;durP2;ratioP2
7017;SDS011;3549;42.162;24.726;2023-12-28T00:01:22;22.07;;;11.47;;
7017;SDS011;3549;42.162;24.726;2023-12-28T00:03:48;21.80;;;11.90;;
7017;SDS011;3549;42.162;24.726;2023-12-28T00:06:14;23.77;;;11.13;;
7017;SDS011;3549;42.162;24.726;2023-12-28T00:08:40;21.03;;;11.00;;
7017;SDS011;3549;42.162;24.726;2023-12-28T00:11:05;21.40;;;11.03;;
7017;SDS011;3549;42.162;24.726;2023-12-28T00:13:31;23.23;;;11.97;;
7017;SDS011;3549;42.162;24.726;2023-12-28T00:15:56;29.67;;;13.10;;
7017;SDS011;3549;42.162;24.726;2023-12-28T00:18:22;23.87;;;12.30;;
7017;SDS011;3549;42.162;24.726;2023-12-28T00:20:47;20.87;;;12.17;;
7017;SDS011;3549;42.162;24.726;2023-12-28T00:23:12;30.03;;;14.23;;
7017;SDS011;3549;42.162;24.726;2023-12-28T00:25:38;25.07;;;12.67;;
7017;SDS011;3549;42.162;24.726;2023-12-28T00:28:03;22.77;;;11.10;;
7017;SDS011;3549;42.162;24.726;2023-12-28T00:30:29;19.87;;;9.33;;
7017;SDS011;3549;42.162;24.726;2023-12-28T00:32:55;19.60;;;9.80;;
7017;SDS011;3549;42.162;24.726;2023-12-28T00:35:20;16.37;;;9.00;;
7017;SDS011;3549;42.162;24.726;2023-12-28T00:37:46;19.30;;;9.80;;
7017;SDS011;3549;42.162;24.726;2023-12-28T00:40:11;19.33;;;9.83;;
7017;SDS011;3549;42.162;24.726;2023-12-28T00:42:37;16.40;;;9.20;;
7017;SDS011;3549;42.162;24.726;2023-12-28T00:45:03;18.60;;;9.37;;
7017;SDS011;3549;42.162;24.726;2023-12-28T00:47:29;17.17;;;9.23;;
7017;SDS011;3549;42.162;24.726;2023-12-28T00:49:54;20.20;;;10.30;;
7017;SDS011;3549;42.162;24.726;2023-12-28T00:52:19;19.87;;;9.50;;
7017;SDS011;3549;42.162;24.726;2023-12-28T00:54:45;18.30;;;10.27;;
7017;SDS011;3549;42.162;24.726;2023-12-28T00:57:10;21.10;;;10.13;;
7017;SDS011;3549;42.162;24.726;2023-12-28T00:59:36;22.23;;;11.27;;
7017;SDS011;3549;42.162;24.726;2023-12-28T01:02:01;27.57;;;12.13;;
7017;SDS011;3549;42.162;24.726;2023-12-28T01:04:26;20.87;;;10.03;;
7017;SDS011;3549;42.162;24.726;2023-12-28T01:06:52;32.03;;;15.30;;
7017;SDS011;3549;42.162;24.726;2023-12-28T01:09:18;49.93;;;19.57;;
7017;SDS011;3549;42.162;24.726;2023-12-28T01:11:44;57.27;;;24.40;;
7017;SDS011;3549;42.162;24.726;2023-12-28T01:14:09;60.50;;;25.03;;
7017;SDS011;3549;42.162;24.726;2023-12-28T01:16:34;39.90;;;16.90;;
7017;SDS011;3549;42.162;24.726;2023-12-28T01:19:01;39.97;;;17.43;;
7017;SDS011;3549;42.162;24.726;2023-12-28T01:21:26;23.53;;;12.90;;
7017;SDS011;3549;42.162;24.726;2023-12-28T01:23:53;21.63;;;11.00;;
7017;SDS011;3549;42.162;24.726;2023-12-28T01:26:19;21.33;;;11.03;;
7017;SDS011;3549;42.162;24.726;2023-12-28T01:28:45;21.53;;;10.97;;
7017;SDS011;3549;42.162;24.726;2023-12-28T01:31:11;33.80;;;14.40;;
7017;SDS011;3549;42.162;24.726;2023-12-28T01:33:36;32.77;;;14.50;;
7017;SDS011;3549;42.162;24.726;2023-12-28T01:36:02;50.90;;;20.17;;
7017;SDS011;3549;42.162;24.726;2023-12-28T01:38:27;33.87;;;16.00;;
7017;SDS011;3549;42.162;24.726;2023-12-28T01:40:53;35.90;;;18.07;;
7017;SDS011;3549;42.162;24.726;2023-12-28T01:43:18;38.60;;;19.53;;
7017;SDS011;3549;42.162;24.726;2023-12-28T01:45:44;45.00;;;21.37;;
7017;SDS011;3549;42.162;24.726;2023-12-28T01:48:10;50.93;;;27.43;;
7017;SDS011;3549;42.162;24.726;2023-12-28T01:50:38;66.87;;;29.80;;
7017;SDS011;3549;42.162;24.726;2023-12-28T01:53:04;50.33;;;26.27;;
7017;SDS011;3549;42.162;24.726;2023-12-28T01:55:31;50.63;;;26.23;;
7017;SDS011;3549;42.162;24.726;2023-12-28T01:57:58;46.57;;;22.03;;
7017;SDS011;3549;42.162;24.726;2023-12-28T02:00:24;41.37;;;22.03;;
7017;SDS011;3549;42.162;24.726;2023-12-28T02:02:50;41.53;;;19.53;;
7017;SDS011;3549;42.162;24.726;2023-12-28T02:05:16;38.10;;;18.97;;
7017;SDS011;3549;42.162;24.726;2023-12-28T02:07:42;40.73;;;18.47;;
7017;SDS011;3549;42.162;24.726;2023-12-28T02:10:07;40.20;;;19.50;;
7017;SDS011;3549;42.162;24.726;2023-12-28T02:12:33;36.27;;;16.93;;
7017;SDS011;3549;42.162;24.726;2023-12-28T02:14:59;41.53;;;19.87;;
7017;SDS011;3549;42.162;24.726;2023-12-28T02:19:55;31.97;;;16.67;;
7017;SDS011;3549;42.162;24.726;2023-12-28T02:22:25;29.23;;;15.57;;
7017;SDS011;3549;42.162;24.726;2023-12-28T02:30:13;32.23;;;15.87;;
7017;SDS011;3549;42.162;24.726;2023-12-28T02:32:47;28.67;;;15.40;;
7017;SDS011;3549;42.162;24.726;2023-12-28T02:35:17;36.30;;;18.17;;
7017;SDS011;3549;42.162;24.726;2023-12-28T02:37:47;39.23;;;18.97;;
7017;SDS011;3549;42.162;24.726;2023-12-28T02:40:17;38.70;;;18.57;;
7017;SDS011;3549;42.162;24.726;2023-12-28T02:42:43;47.90;;;22.43;;
7017;SDS011;3549;42.162;24.726;2023-12-28T02:45:09;49.37;;;21.93;;
7017;SDS011;3549;42.162;24.726;2023-12-28T02:47:35;107.83;;;56.57;;
7017;SDS011;3549;42.162;24.726;2023-12-28T02:50:00;71.50;;;34.63;;
7017;SDS011;3549;42.162;24.726;2023-12-28T02:52:25;50.07;;;23.27;;
7017;SDS011;3549;42.162;24.726;2023-12-28T02:54:51;48.07;;;22.57;;
7017;SDS011;3549;42.162;24.726;2023-12-28T02:57:16;51.93;;;22.63;;
7017;SDS011;3549;42.162;24.726;2023-12-28T02:59:44;42.20;;;21.07;;
7017;SDS011;3549;42.162;24.726;2023-12-28T03:02:10;40.33;;;17.37;;
7017;SDS011;3549;42.162;24.726;2023-12-28T03:04:35;37.80;;;17.30;;
7017;SDS011;3549;42.162;24.726;2023-12-28T03:07:01;45.80;;;18.43;;
7017;SDS011;3549;42.162;24.726;2023-12-28T03:09:26;51.90;;;23.13;;
7017;SDS011;3549;42.162;24.726;2023-12-28T03:11:52;40.63;;;18.70;;
7017;SDS011;3549;42.162;24.726;2023-12-28T03:14:17;41.33;;;17.50;;
7017;SDS011;3549;42.162;24.726;2023-12-28T03:16:43;50.63;;;22.17;;
7017;SDS011;3549;42.162;24.726;2023-12-28T03:19:08;39.33;;;15.30;;
7017;SDS011;3549;42.162;24.726;2023-12-28T03:21:38;28.03;;;13.67;;
7017;SDS011;3549;42.162;24.726;2023-12-28T03:24:04;25.93;;;11.90;;
7017;SDS011;3549;42.162;24.726;2023-12-28T03:26:29;28.83;;;13.73;;
7017;SDS011;3549;42.162;24.726;2023-12-28T03:28:55;28.97;;;13.70;;
7017;SDS011;3549;42.162;24.726;2023-12-28T03:31:20;24.57;;;12.27;;
7017;SDS011;3549;42.162;24.726;2023-12-28T03:33:45;25.63;;;12.10;;
7017;SDS011;3549;42.162;24.726;2023-12-28T03:36:17;28.70;;;13.37;;
7017;SDS011;3549;42.162;24.726;2023-12-28T03:38:43;24.13;;;12.13;;
7017;SDS011;3549;42.162;24.726;2023-12-28T03:41:18;22.50;;;12.37;;
7017;SDS011;3549;42.162;24.726;2023-12-28T03:43:44;36.20;;;18.27;;
7017;SDS011;3549;42.162;24.726;2023-12-28T03:46:10;36.53;;;17.53;;
7017;SDS011;3549;42.162;24.726;2023-12-28T03:48:36;33.97;;;16.03;;
7017;SDS011;3549;42.162;24.726;2023-12-28T03:51:02;223.37;;;106.17;;
7017;SDS011;3549;42.162;24.726;2023-12-28T03:53:28;283.53;;;131.07;;
7017;SDS011;3549;42.162;24.726;2023-12-28T03:55:53;111.47;;;48.73;;
7017;SDS011;3549;42.162;24.726;2023-12-28T03:58:18;101.37;;;47.50;;
7017;SDS011;3549;42.162;24.726;2023-12-28T04:00:44;119.60;;;54.73;;
7017;SDS011;3549;42.162;24.726;2023-12-28T04:03:09;103.53;;;48.33;;
7017;SDS011;3549;42.162;24.726;2023-12-28T04:05:35;124.83;;;55.20;;
7017;SDS011;3549;42.162;24.726;2023-12-28T04:08:00;95.17;;;43.77;;
7017;SDS011;3549;42.162;24.726;2023-12-28T04:10:33;87.53;;;41.03;;
7017;SDS011;3549;42.162;24.726;2023-12-28T04:12:58;66.67;;;32.13;;
7017;SDS011;3549;42.162;24.726;2023-12-28T04:15:27;52.40;;;27.40;;
7017;SDS011;3549;42.162;24.726;2023-12-28T04:17:53;35.33;;;17.57;;
7017;SDS011;3549;42.162;24.726;2023-12-28T04:20:19;50.67;;;23.60;;
7017;SDS011;3549;42.162;24.726;2023-12-28T04:22:44;42.53;;;22.83;;
7017;SDS011;3549;42.162;24.726;2023-12-28T04:25:10;58.63;;;27.40;;
7017;SDS011;3549;42.162;24.726;2023-12-28T04:27:36;83.97;;;37.07;;
7017;SDS011;3549;42.162;24.726;2023-12-28T04:30:01;95.10;;;42.47;;
7017;SDS011;3549;42.162;24.726;2023-12-28T04:32:27;272.70;;;97.17;;
7017;SDS011;3549;42.162;24.726;2023-12-28T04:34:52;165.07;;;57.73;;
7017;SDS011;3549;42.162;24.726;2023-12-28T04:37:21;110.73;;;41.03;;
7017;SDS011;3549;42.162;24.726;2023-12-28T04:39:46;72.10;;;26.00;;
7017;SDS011;3549;42.162;24.726;2023-12-28T04:42:12;72.73;;;27.37;;
7017;SDS011;3549;42.162;24.726;2023-12-28T04:44:38;95.60;;;39.93;;
7017;SDS011;3549;42.162;24.726;2023-12-28T04:47:04;64.63;;;29.40;;
7017;SDS011;3549;42.162;24.726;2023-12-28T04:49:29;46.03;;;20.70;;
7017;SDS011;3549;42.162;24.726;2023-12-28T04:51:55;69.80;;;30.63;;
7017;SDS011;3549;42.162;24.726;2023-12-28T04:54:20;65.87;;;28.33;;
7017;SDS011;3549;42.162;24.726;2023-12-28T04:56:46;88.97;;;36.17;;
7017;SDS011;3549;42.162;24.726;2023-12-28T04:59:12;83.47;;;34.77;;
7017;SDS011;3549;42.162;24.726;2023-12-28T05:01:43;49.13;;;22.73;;
7017;SDS011;3549;42.162;24.726;2023-12-28T05:04:09;47.67;;;21.27;;
7017;SDS011;3549;42.162;24.726;2023-12-28T05:06:34;43.70;;;19.30;;
7017;SDS011;3549;42.162;24.726;2023-12-28T05:09:00;44.50;;;18.77;;
7017;SDS011;3549;42.162;24.726;2023-12-28T05:11:26;36.57;;;15.57;;
7017;SDS011;3549;42.162;24.726;2023-12-28T05:13:52;28.50;;;12.93;;
7017;SDS011;3549;42.162;24.726;2023-12-28T05:16:18;29.90;;;12.60;;
7017;SDS011;3549;42.162;24.726;2023-12-28T05:18:44;27.40;;;11.87;;
7017;SDS011;3549;42.162;24.726;2023-12-28T05:21:09;30.43;;;14.03;;
7017;SDS011;3549;42.162;24.726;2023-12-28T05:23:35;38.10;;;20.67;;
7017;SDS011;3549;42.162;24.726;2023-12-28T05:26:00;69.00;;;31.53;;
7017;SDS011;3549;42.162;24.726;2023-12-28T05:28:25;62.73;;;34.70;;
7017;SDS011;3549;42.162;24.726;2023-12-28T05:30:51;53.37;;;28.93;;
7017;SDS011;3549;42.162;24.726;2023-12-28T05:33:16;110.53;;;45.50;;
7017;SDS011;3549;42.162;24.726;2023-12-28T05:35:42;83.00;;;36.43;;
7017;SDS011;3549;42.162;24.726;2023-12-28T05:38:07;159.57;;;62.23;;
7017;SDS011;3549;42.162;24.726;2023-12-28T05:40:33;242.20;;;92.67;;
7017;SDS011;3549;42.162;24.726;2023-12-28T05:42:58;194.07;;;74.90;;
7017;SDS011;3549;42.162;24.726;2023-12-28T05:45:23;112.00;;;46.00;;
7017;SDS011;3549;42.162;24.726;2023-12-28T05:47:49;55.47;;;25.17;;
7017;SDS011;3549;42.162;24.726;2023-12-28T05:50:15;49.07;;;22.43;;
7017;SDS011;3549;42.162;24.726;2023-12-28T05:52:40;55.93;;;28.60;;
7017;SDS011;3549;42.162;24.726;2023-12-28T05:55:06;96.30;;;41.77;;
7017;SDS011;3549;42.162;24.726;2023-12-28T05:57:31;127.77;;;52.73;;
7017;SDS011;3549;42.162;24.726;2023-12-28T05:59:57;121.07;;;48.77;;
7017;SDS011;3549;42.162;24.726;2023-12-28T06:02:22;112.60;;;49.83;;
7017;SDS011;3549;42.162;24.726;2023-12-28T06:04:48;103.00;;;47.97;;
7017;SDS011;3549;42.162;24.726;2023-12-28T06:07:13;113.90;;;49.07;;
7017;SDS011;3549;42.162;24.726;2023-12-28T06:09:39;135.30;;;55.63;;
7017;SDS011;3549;42.162;24.726;2023-12-28T06:12:04;128.10;;;52.63;;
7017;SDS011;3549;42.162;24.726;2023-12-28T06:14:30;107.00;;;45.07;;
7017;SDS011;3549;42.162;24.726;2023-12-28T06:16:56;162.03;;;61.87;;
7017;SDS011;3549;42.162;24.726;2023-12-28T06:19:21;196.13;;;76.17;;
7017;SDS011;3549;42.162;24.726;2023-12-28T06:21:47;153.30;;;61.70;;
7017;SDS011;3549;42.162;24.726;2023-12-28T06:24:13;147.70;;;55.27;;
7017;SDS011;3549;42.162;24.726;2023-12-28T06:26:42;89.37;;;35.67;;
7017;SDS011;3549;42.162;24.726;2023-12-28T06:29:08;54.17;;;25.70;;
7017;SDS011;3549;42.162;24.726;2023-12-28T06:31:37;42.27;;;20.83;;
7017;SDS011;3549;42.162;24.726;2023-12-28T06:34:05;40.23;;;18.17;;
7017;SDS011;3549;42.162;24.726;2023-12-28T06:36:32;36.57;;;16.43;;
7017;SDS011;3549;42.162;24.726;2023-12-28T06:38:58;33.07;;;14.60;;
7017;SDS011;3549;42.162;24.726;2023-12-28T06:41:24;31.30;;;15.27;;
7017;SDS011;3549;42.162;24.726;2023-12-28T06:43:51;35.50;;;15.00;;
7017;SDS011;3549;42.162;24.726;2023-12-28T06:46:17;27.67;;;13.53;;
7017;SDS011;3549;42.162;24.726;2023-12-28T06:48:43;29.93;;;13.30;;
7017;SDS011;3549;42.162;24.726;2023-12-28T06:51:09;82.90;;;41.73;;
7017;SDS011;3549;42.162;24.726;2023-12-28T06:53:34;62.13;;;28.37;;
7017;SDS011;3549;42.162;24.726;2023-12-28T06:56:00;50.57;;;22.73;;
7017;SDS011;3549;42.162;24.726;2023-12-28T06:58:25;29.60;;;13.23;;
7017;SDS011;3549;42.162;24.726;2023-12-28T07:00:51;26.40;;;12.70;;
7017;SDS011;3549;42.162;24.726;2023-12-28T07:03:16;32.63;;;12.40;;
7017;SDS011;3549;42.162;24.726;2023-12-28T07:05:42;32.20;;;13.90;;
7017;SDS011;3549;42.162;24.726;2023-12-28T07:08:07;32.40;;;12.70;;
7017;SDS011;3549;42.162;24.726;2023-12-28T07:10:32;28.27;;;12.80;;
7017;SDS011;3549;42.162;24.726;2023-12-28T07:12:58;23.83;;;13.27;;
7017;SDS011;3549;42.162;24.726;2023-12-28T07:15:23;27.17;;;13.00;;
7017;SDS011;3549;42.162;24.726;2023-12-28T07:17:50;27.57;;;14.63;;
7017;SDS011;3549;42.162;24.726;2023-12-28T07:20:15;25.43;;;13.93;;
7017;SDS011;3549;42.162;24.726;2023-12-28T07:22:41;26.23;;;14.07;;
7017;SDS011;3549;42.162;24.726;2023-12-28T07:25:06;39.00;;;18.67;;
7017;SDS011;3549;42.162;24.726;2023-12-28T07:27:33;29.73;;;15.60;;
7017;SDS011;3549;42.162;24.726;2023-12-28T07:29:59;29.47;;;17.30;;
7017;SDS011;3549;42.162;24.726;2023-12-28T07:32:25;38.37;;;20.30;;
7017;SDS011;3549;42.162;24.726;2023-12-28T07:34:54;31.67;;;17.20;;
7017;SDS011;3549;42.162;24.726;2023-12-28T07:37:20;34.80;;;19.93;;
7017;SDS011;3549;42.162;24.726;2023-12-28T07:39:46;33.77;;;19.13;;
7017;SDS011;3549;42.162;24.726;2023-12-28T07:42:12;29.53;;;15.97;;
7017;SDS011;3549;42.162;24.726;2023-12-28T07:44:37;50.20;;;23.90;;
7017;SDS011;3549;42.162;24.726;2023-12-28T07:47:03;41.10;;;20.53;;
7017;SDS011;3549;42.162;24.726;2023-12-28T07:49:29;28.47;;;15.13;;
7017;SDS011;3549;42.162;24.726;2023-12-28T07:51:56;26.17;;;14.47;;
7017;SDS011;3549;42.162;24.726;2023-12-28T07:54:21;29.33;;;14.57;;
7017;SDS011;3549;42.162;24.726;2023-12-28T07:56:47;25.30;;;14.40;;
7017;SDS011;3549;42.162;24.726;2023-12-28T07:59:12;46.40;;;22.87;;
7017;SDS011;3549;42.162;24.726;2023-12-28T08:01:37;41.40;;;21.13;;
7017;SDS011;3549;42.162;24.726;2023-12-28T08:04:03;41.87;;;22.13;;
7017;SDS011;3549;42.162;24.726;2023-12-28T08:06:29;31.87;;;17.60;;
7017;SDS011;3549;42.162;24.726;2023-12-28T08:08:57;36.70;;;17.57;;
7017;SDS011;3549;42.162;24.726;2023-12-28T08:11:24;38.70;;;18.83;;
7017;SDS011;3549;42.162;24.726;2023-12-28T08:13:49;28.10;;;14.43;;
7017;SDS011;3549;42.162;24.726;2023-12-28T08:16:16;31.00;;;16.47;;
7017;SDS011;3549;42.162;24.726;2023-12-28T08:18:41;37.43;;;19.70;;
7017;SDS011;3549;42.162;24.726;2023-12-28T08:21:07;31.63;;;15.13;;
7017;SDS011;3549;42.162;24.726;2023-12-28T08:23:32;27.80;;;14.60;;
7017;SDS011;3549;42.162;24.726;2023-12-28T08:25:57;29.57;;;15.97;;
7017;SDS011;3549;42.162;24.726;2023-12-28T08:28:23;32.47;;;17.83;;
7017;SDS011;3549;42.162;24.726;2023-12-28T08:30:48;34.83;;;20.83;;
7017;SDS011;3549;42.162;24.726;2023-12-28T08:33:14;42.00;;;22.60;;
7017;SDS011;3549;42.162;24.726;2023-12-28T08:35:39;33.67;;;17.00;;
7017;SDS011;3549;42.162;24.726;2023-12-28T08:38:05;34.43;;;18.63;;
7017;SDS011;3549;42.162;24.726;2023-12-28T08:40:31;51.80;;;25.60;;
7017;SDS011;3549;42.162;24.726;2023-12-28T08:42:57;53.87;;;24.93;;
7017;SDS011;3549;42.162;24.726;2023-12-28T08:45:22;45.30;;;24.80;;
7017;SDS011;3549;42.162;24.726;2023-12-28T08:47:48;38.23;;;19.90;;
7017;SDS011;3549;42.162;24.726;2023-12-28T08:50:14;39.43;;;22.03;;
7017;SDS011;3549;42.162;24.726;2023-12-28T08:52:39;74.77;;;38.03;;
7017;SDS011;3549;42.162;24.726;2023-12-28T08:55:05;47.50;;;24.50;;
7017;SDS011;3549;42.162;24.726;2023-12-28T08:57:31;40.60;;;20.60;;
7017;SDS011;3549;42.162;24.726;2023-12-28T08:59:56;39.23;;;20.73;;
7017;SDS011;3549;42.162;24.726;2023-12-28T09:02:22;48.93;;;24.40;;
7017;SDS011;3549;42.162;24.726;2023-12-28T09:04:48;34.07;;;18.53;;
7017;SDS011;3549;42.162;24.726;2023-12-28T09:07:14;27.57;;;15.33;;
7017;SDS011;3549;42.162;24.726;2023-12-28T09:09:41;26.97;;;15.13;;
7017;SDS011;3549;42.162;24.726;2023-12-28T09:12:07;26.60;;;14.87;;
7017;SDS011;3549;42.162;24.726;2023-12-28T09:14:32;122.17;;;45.77;;
7017;SDS011;3549;42.162;24.726;2023-12-28T09:16:58;35.37;;;18.97;;
7017;SDS011;3549;42.162;24.726;2023-12-28T09:19:23;31.67;;;16.93;;
7017;SDS011;3549;42.162;24.726;2023-12-28T09:21:49;32.03;;;17.50;;
7017;SDS011;3549;42.162;24.726;2023-12-28T09:24:14;24.20;;;13.70;;
7017;SDS011;3549;42.162;24.726;2023-12-28T09:26:40;26.37;;;13.80;;
7017;SDS011;3549;42.162;24.726;2023-12-28T09:29:06;23.83;;;13.40;;
7017;SDS011;3549;42.162;24.726;2023-12-28T09:31:32;27.00;;;15.67;;
7017;SDS011;3549;42.162;24.726;2023-12-28T09:33:57;29.37;;;15.53;;
7017;SDS011;3549;42.162;24.726;2023-12-28T09:36:23;25.70;;;14.97;;
7017;SDS011;3549;42.162;24.726;2023-12-28T09:38:48;29.87;;;16.57;;
7017;SDS011;3549;42.162;24.726;2023-12-28T09:41:16;27.63;;;16.00;;
7017;SDS011;3549;42.162;24.726;2023-12-28T09:43:53;22.57;;;12.10;;
7017;SDS011;3549;42.162;24.726;2023-12-28T09:46:22;25.27;;;14.20;;
7017;SDS011;3549;42.162;24.726;2023-12-28T09:48:47;20.77;;;13.27;;
7017;SDS011;3549;42.162;24.726;2023-12-28T09:51:13;22.97;;;11.50;;
7017;SDS011;3549;42.162;24.726;2023-12-28T09:53:38;24.57;;;12.93;;
7017;SDS011;3549;42.162;24.726;2023-12-28T09:56:04;22.90;;;12.43;;
7017;SDS011;3549;42.162;24.726;2023-12-28T09:58:30;18.23;;;10.53;;
7017;SDS011;3549;42.162;24.726;2023-12-28T10:00:58;18.53;;;11.80;;
7017;SDS011;3549;42.162;24.726;2023-12-28T10:03:25;21.87;;;13.27;;
7017;SDS011;3549;42.162;24.726;2023-12-28T10:05:50;37.87;;;21.60;;
7017;SDS011;3549;42.162;24.726;2023-12-28T10:08:15;35.83;;;18.03;;
7017;SDS011;3549;42.162;24.726;2023-12-28T10:10:42;24.60;;;14.80;;
7017;SDS011;3549;42.162;24.726;2023-12-28T10:13:08;21.47;;;11.70;;
7017;SDS011;3549;42.162;24.726;2023-12-28T10:15:37;23.33;;;12.70;;
7017;SDS011;3549;42.162;24.726;2023-12-28T10:18:04;22.50;;;10.80;;
7017;SDS011;3549;42.162;24.726;2023-12-28T10:20:30;19.20;;;11.63;;
7017;SDS011;3549;42.162;24.726;2023-12-28T10:22:57;20.30;;;10.77;;
7017;SDS011;3549;42.162;24.726;2023-12-28T10:25:23;22.03;;;12.90;;
7017;SDS011;3549;42.162;24.726;2023-12-28T10:27:52;17.47;;;11.60;;
7017;SDS011;3549;42.162;24.726;2023-12-28T10:30:19;17.17;;;9.90;;
7017;SDS011;3549;42.162;24.726;2023-12-28T10:32:45;18.73;;;10.87;;
7017;SDS011;3549;42.162;24.726;2023-12-28T10:35:11;21.67;;;11.50;;
7017;SDS011;3549;42.162;24.726;2023-12-28T10:37:37;21.17;;;12.33;;
7017;SDS011;3549;42.162;24.726;2023-12-28T10:40:06;20.77;;;12.90;;
7017;SDS011;3549;42.162;24.726;2023-12-28T10:42:34;21.80;;;13.43;;
7017;SDS011;3549;42.162;24.726;2023-12-28T10:45:09;27.20;;;17.00;;
7017;SDS011;3549;42.162;24.726;2023-12-28T10:47:37;24.60;;;14.87;;
7017;SDS011;3549;42.162;24.726;2023-12-28T10:50:07;26.43;;;13.20;;
7017;SDS011;3549;42.162;24.726;2023-12-28T10:52:35;21.63;;;12.83;;
7017;SDS011;3549;42.162;24.726;2023-12-28T10:58:05;27.33;;;16.57;;
7017;SDS011;3549;42.162;24.726;2023-12-28T11:00:39;30.37;;;16.53;;
7017;SDS011;3549;42.162;24.726;2023-12-28T11:03:09;27.63;;;16.53;;
7017;SDS011;3549;42.162;24.726;2023-12-28T11:05:37;30.87;;;18.63;;
7017;SDS011;3549;42.162;24.726;2023-12-28T11:08:06;26.43;;;15.33;;
7017;SDS011;3549;42.162;24.726;2023-12-28T11:10:32;20.47;;;13.00;;
7017;SDS011;3549;42.162;24.726;2023-12-28T11:13:00;21.10;;;13.17;;
7017;SDS011;3549;42.162;24.726;2023-12-28T11:15:26;21.07;;;12.67;;
7017;SDS011;3549;42.162;24.726;2023-12-28T11:17:53;21.93;;;13.67;;
7017;SDS011;3549;42.162;24.726;2023-12-28T11:20:18;24.73;;;12.77;;
7017;SDS011;3549;42.162;24.726;2023-12-28T11:22:45;23.70;;;12.37;;
7017;SDS011;3549;42.162;24.726;2023-12-28T11:25:15;28.30;;;15.23;;
7017;SDS011;3549;42.162;24.726;2023-12-28T11:27:43;27.47;;;13.07;;
7017;SDS011;3549;42.162;24.726;2023-12-28T11:30:09;33.07;;;16.23;;
7017;SDS011;3549;42.162;24.726;2023-12-28T11:32:36;23.33;;;14.87;;
7017;SDS011;3549;42.162;24.726;2023-12-28T11:35:02;23.63;;;14.47;;
7017;SDS011;3549;42.162;24.726;2023-12-28T11:37:34;25.97;;;13.77;;
7017;SDS011;3549;42.162;24.726;2023-12-28T11:40:10;26.83;;;14.40;;
7017;SDS011;3549;42.162;24.726;2023-12-28T11:42:37;42.43;;;20.50;;
7017;SDS011;3549;42.162;24.726;2023-12-28T11:45:24;28.60;;;16.47;;
7017;SDS011;3549;42.162;24.726;2023-12-28T11:48:02;25.47;;;12.63;;
7017;SDS011;3549;42.162;24.726;2023-12-28T11:50:27;23.70;;;12.57;;
7017;SDS011;3549;42.162;24.726;2023-12-28T11:52:53;27.90;;;13.13;;
7017;SDS011;3549;42.162;24.726;2023-12-28T11:55:22;36.27;;;17.47;;
7017;SDS011;3549;42.162;24.726;2023-12-28T11:57:51;24.60;;;14.03;;
7017;SDS011;3549;42.162;24.726;2023-12-28T12:00:17;20.33;;;11.67;;
7017;SDS011;3549;42.162;24.726;2023-12-28T12:02:43;28.40;;;16.33;;
7017;SDS011;3549;42.162;24.726;2023-12-28T12:05:14;24.83;;;12.20;;
7017;SDS011;3549;42.162;24.726;2023-12-28T12:07:40;24.13;;;13.47;;
7017;SDS011;3549;42.162;24.726;2023-12-28T12:10:06;22.20;;;12.40;;
7017;SDS011;3549;42.162;24.726;2023-12-28T12:12:31;22.87;;;12.83;;
7017;SDS011;3549;42.162;24.726;2023-12-28T12:14:57;26.73;;;15.63;;
7017;SDS011;3549;42.162;24.726;2023-12-28T12:17:23;30.60;;;14.67;;
7017;SDS011;3549;42.162;24.726;2023-12-28T12:19:50;24.67;;;11.57;;
7017;SDS011;3549;42.162;24.726;2023-12-28T12:22:20;19.07;;;11.00;;
7017;SDS011;3549;42.162;24.726;2023-12-28T12:24:47;19.30;;;11.87;;
7017;SDS011;3549;42.162;24.726;2023-12-28T12:27:16;27.53;;;11.17;;
7017;SDS011;3549;42.162;24.726;2023-12-28T12:29:42;27.40;;;13.60;;
7017;SDS011;3549;42.162;24.726;2023-12-28T12:32:08;39.90;;;13.87;;
7017;SDS011;3549;42.162;24.726;2023-12-28T12:34:34;21.40;;;11.63;;
7017;SDS011;3549;42.162;24.726;2023-12-28T12:37:00;23.07;;;10.73;;
7017;SDS011;3549;42.162;24.726;2023-12-28T12:39:25;20.60;;;11.97;;
7017;SDS011;3549;42.162;24.726;2023-12-28T12:41:51;26.07;;;12.50;;
7017;SDS011;3549;42.162;24.726;2023-12-28T12:44:19;25.53;;;12.50;;
7017;SDS011;3549;42.162;24.726;2023-12-28T12:46:45;20.20;;;12.07;;
7017;SDS011;3549;42.162;24.726;2023-12-28T12:49:11;24.97;;;13.33;;
7017;SDS011;3549;42.162;24.726;2023-12-28T12:51:37;19.17;;;12.30;;
7017;SDS011;3549;42.162;24.726;2023-12-28T12:54:07;37.70;;;24.13;;
7017;SDS011;3549;42.162;24.726;2023-12-28T12:56:35;29.17;;;20.53;;
7017;SDS011;3549;42.162;24.726;2023-12-28T12:59:01;27.20;;;14.57;;
7017;SDS011;3549;42.162;24.726;2023-12-28T13:01:26;28.17;;;16.10;;
7017;SDS011;3549;42.162;24.726;2023-12-28T13:03:53;28.35;;;15.45;;
7017;SDS011;3549;42.162;24.726;2023-12-28T13:06:21;29.67;;;15.00;;
7017;SDS011;3549;42.162;24.726;2023-12-28T13:08:48;36.50;;;17.67;;
7017;SDS011;3549;42.162;24.726;2023-12-28T13:11:14;37.13;;;18.50;;
7017;SDS011;3549;42.162;24.726;2023-12-28T13:13:40;25.90;;;14.27;;
7017;SDS011;3549;42.162;24.726;2023-12-28T13:16:06;26.87;;;14.40;;
7017;SDS011;3549;42.162;24.726;2023-12-28T13:18:31;28.50;;;14.67;;
7017;SDS011;3549;42.162;24.726;2023-12-28T13:21:00;24.87;;;14.80;;
7017;SDS011;3549;42.162;24.726;2023-12-28T13:23:25;43.10;;;21.63;;
7017;SDS011;3549;42.162;24.726;2023-12-28T13:25:54;34.70;;;19.33;;
7017;SDS011;3549;42.162;24.726;2023-12-28T13:28:19;29.03;;;14.77;;
7017;SDS011;3549;42.162;24.726;2023-12-28T13:30:45;35.73;;;15.50;;
7017;SDS011;3549;42.162;24.726;2023-12-28T13:33:11;26.73;;;14.20;;
7017;SDS011;3549;42.162;24.726;2023-12-28T13:35:37;44.33;;;29.93;;
7017;SDS011;3549;42.162;24.726;2023-12-28T13:38:03;36.10;;;21.60;;
7017;SDS011;3549;42.162;24.726;2023-12-28T13:40:28;31.63;;;18.40;;
7017;SDS011;3549;42.162;24.726;2023-12-28T13:42:56;36.50;;;23.57;;
7017;SDS011;3549;42.162;24.726;2023-12-28T13:45:21;27.07;;;15.63;;
7017;SDS011;3549;42.162;24.726;2023-12-28T13:47:47;34.70;;;17.63;;
7017;SDS011;3549;42.162;24.726;2023-12-28T13:50:12;32.20;;;16.57;;
7017;SDS011;3549;42.162;24.726;2023-12-28T13:52:58;29.27;;;16.43;;
7017;SDS011;3549;42.162;24.726;2023-12-28T13:55:23;30.07;;;15.87;;
7017;SDS011;3549;42.162;24.726;2023-12-28T13:57:49;29.37;;;17.17;;
7017;SDS011;3549;42.162;24.726;2023-12-28T14:00:15;35.30;;;17.60;;
7017;SDS011;3549;42.162;24.726;2023-12-28T14:02:42;45.53;;;17.23;;
7017;SDS011;3549;42.162;24.726;2023-12-28T14:05:08;30.07;;;17.67;;
7017;SDS011;3549;42.162;24.726;2023-12-28T14:07:34;34.00;;;17.23;;
7017;SDS011;3549;42.162;24.726;2023-12-28T14:09:59;37.60;;;21.27;;
7017;SDS011;3549;42.162;24.726;2023-12-28T14:12:25;40.03;;;17.57;;
7017;SDS011;3549;42.162;24.726;2023-12-28T14:15:11;37.33;;;21.23;;
7017;SDS011;3549;42.162;24.726;2023-12-28T14:17:36;62.77;;;32.13;;
7017;SDS011;3549;42.162;24.726;2023-12-28T14:20:02;114.37;;;46.73;;
7017;SDS011;3549;42.162;24.726;2023-12-28T14:22:28;227.17;;;87.10;;
7017;SDS011;3549;42.162;24.726;2023-12-28T14:24:54;186.93;;;71.20;;
7017;SDS011;3549;42.162;24.726;2023-12-28T14:27:20;116.73;;;47.17;;
7017;SDS011;3549;42.162;24.726;2023-12-28T14:29:46;57.07;;;26.20;;
7017;SDS011;3549;42.162;24.726;2023-12-28T14:32:12;100.73;;;40.40;;
7017;SDS011;3549;42.162;24.726;2023-12-28T14:34:38;338.07;;;125.43;;
7017;SDS011;3549;42.162;24.726;2023-12-28T14:37:04;214.13;;;85.60;;
7017;SDS011;3549;42.162;24.726;2023-12-28T14:39:30;246.07;;;98.97;;